sensor_id;sensor_type;location;lat;lon;timestamp;pressure;altitude;pressure_sealevel;temperature;humidity
39197;BME280;42889;51.112;13.772;2023-01-30T00:01:14;99222.22;;;-1.73;100.00
39197;BME280;42889;51.112;13.772;2023-01-30T00:03:41;99212.53;;;-1.73;100.00
39197;BME280;42889;51.112;13.772;2023-01-30T00:06:09;99205.47;;;-1.72;100.00
39197;BME280;42889;51.112;13.772;2023-01-30T00:08:35;99200.28;;;-1.74;100.00
39197;BME280;42889;51.112;13.772;2023-01-30T00:11:07;99198.34;;;-1.70;100.00
39197;BME280;42889;51.112;13.772;2023-01-30T00:13:34;99199.09;;;-1.68;100.00
39197;BME280;42889;51.112;13.772;2023-01-30T00:16:01;99191.94;;;-1.66;100.00
39197;BME280;42889;51.112;13.772;2023-01-30T00:18:28;99188.31;;;-1.64;100.00
39197;BME280;42889;51.112;13.772;2023-01-30T00:23:24;99175.13;;;-1.64;100.00
39197;BME280;42889;51.112;13.772;2023-01-30T00:25:51;99182.00;;;-1.61;100.00
39197;BME280;42889;51.112;13.772;2023-01-30T00:28:18;99174.88;;;-1.59;100.00
39197;BME280;42889;51.112;13.772;2023-01-30T00:30:48;99166.03;;;-1.58;100.00
39197;BME280;42889;51.112;13.772;2023-01-30T00:33:16;99165.69;;;-1.52;100.00
39197;BME280;42889;51.112;13.772;2023-01-30T00:35:47;99165.00;;;-1.55;100.00
39197;BME280;42889;51.112;13.772;2023-01-30T00:38:15;99156.13;;;-1.54;100.00
39197;BME280;42889;51.112;13.772;2023-01-30T00:40:42;99151.78;;;-1.55;100.00
39197;BME280;42889;51.112;13.772;2023-01-30T00:43:14;99144.81;;;-1.56;100.00
39197;BME280;42889;51.112;13.772;2023-01-30T00:46:07;99126.34;;;-1.56;100.00
39197;BME280;42889;51.112;13.772;2023-01-30T00:48:54;99114.00;;;-1.56;100.00
39197;BME280;42889;51.112;13.772;2023-01-30T00:51:20;99107.53;;;-1.50;100.00
39197;BME280;42889;51.112;13.772;2023-01-30T00:53:47;99117.41;;;-1.54;100.00
39197;BME280;42889;51.112;13.772;2023-01-30T00:56:13;99116.31;;;-1.50;100.00
39197;BME280;42889;51.112;13.772;2023-01-30T00:58:40;99115.31;;;-1.47;100.00
39197;BME280;42889;51.112;13.772;2023-01-30T01:01:09;99123.13;;;-1.46;100.00
39197;BME280;42889;51.112;13.772;2023-01-30T01:03:36;99118.88;;;-1.48;100.00
39197;BME280;42889;51.112;13.772;2023-01-30T01:06:03;99123.38;;;-1.50;100.00
39197;BME280;42889;51.112;13.772;2023-01-30T01:08:29;99130.81;;;-1.41;100.00
39197;BME280;42889;51.112;13.772;2023-01-30T01:10:56;99129.75;;;-1.39;100.00
39197;BME280;42889;51.112;13.772;2023-01-30T01:13:23;99125.28;;;-1.37;100.00
39197;BME280;42889;51.112;13.772;2023-01-30T01:15:50;99101.66;;;-1.40;100.00
39197;BME280;42889;51.112;13.772;2023-01-30T01:18:17;99107.66;;;-1.36;100.00
39197;BME280;42889;51.112;13.772;2023-01-30T01:20:44;99098.78;;;-1.35;100.00
39197;BME280;42889;51.112;13.772;2023-01-30T01:23:11;99076.91;;;-1.37;100.00
39197;BME280;42889;51.112;13.772;2023-01-30T01:25:38;99076.47;;;-1.29;100.00
39197;BME280;42889;51.112;13.772;2023-01-30T01:28:05;99058.09;;;-1.31;100.00
39197;BME280;42889;51.112;13.772;2023-01-30T01:30:31;99050.22;;;-1.33;100.00
39197;BME280;42889;51.112;13.772;2023-01-30T01:32:58;99032.44;;;-1.29;100.00
39197;BME280;42889;51.112;13.772;2023-01-30T01:35:26;99030.84;;;-1.31;100.00
39197;BME280;42889;51.112;13.772;2023-01-30T01:37:53;99024.53;;;-1.29;100.00
39197;BME280;42889;51.112;13.772;2023-01-30T01:40:21;99033.38;;;-1.30;100.00
39197;BME280;42889;51.112;13.772;2023-01-30T01:43:18;99019.94;;;-1.25;100.00
39197;BME280;42889;51.112;13.772;2023-01-30T01:45:48;99013.69;;;-1.24;100.00
39197;BME280;42889;51.112;13.772;2023-01-30T01:50:56;99013.13;;;-1.29;100.00
39197;BME280;42889;51.112;13.772;2023-01-30T01:53:27;99008.31;;;-1.23;100.00
39197;BME280;42889;51.112;13.772;2023-01-30T01:55:57;98997.41;;;-1.17;100.00
39197;BME280;42889;51.112;13.772;2023-01-30T01:58:41;98981.66;;;-1.18;100.00
39197;BME280;42889;51.112;13.772;2023-01-30T02:01:20;98963.44;;;-1.23;100.00
39197;BME280;42889;51.112;13.772;2023-01-30T02:03:52;98949.31;;;-1.22;100.00
39197;BME280;42889;51.112;13.772;2023-01-30T02:06:21;98926.31;;;-1.20;100.00
39197;BME280;42889;51.112;13.772;2023-01-30T02:08:54;98932.34;;;-1.18;100.00
39197;BME280;42889;51.112;13.772;2023-01-30T02:11:45;98911.59;;;-1.24;100.00
39197;BME280;42889;51.112;13.772;2023-01-30T02:14:13;98917.97;;;-1.28;100.00
39197;BME280;42889;51.112;13.772;2023-01-30T02:16:42;98927.59;;;-1.27;100.00
39197;BME280;42889;51.112;13.772;2023-01-30T02:24:51;98920.78;;;-1.15;100.00
39197;BME280;42889;51.112;13.772;2023-01-30T02:27:36;98906.41;;;-1.11;100.00
39197;BME280;42889;51.112;13.772;2023-01-30T02:33:47;98906.69;;;-1.16;100.00
39197;BME280;42889;51.112;13.772;2023-01-30T02:36:20;98905.00;;;-1.17;100.00
39197;BME280;42889;51.112;13.772;2023-01-30T02:39:04;98908.31;;;-1.13;100.00
39197;BME280;42889;51.112;13.772;2023-01-30T02:41:40;98928.97;;;-1.06;100.00
39197;BME280;42889;51.112;13.772;2023-01-30T02:44:33;98927.84;;;-1.01;100.00
39197;BME280;42889;51.112;13.772;2023-01-30T02:47:07;98936.94;;;-0.91;100.00
39197;BME280;42889;51.112;13.772;2023-01-30T02:49:44;98919.88;;;-0.86;100.00
39197;BME280;42889;51.112;13.772;2023-01-30T02:52:14;98910.03;;;-0.84;100.00
39197;BME280;42889;51.112;13.772;2023-01-30T02:54:44;98890.59;;;-0.83;100.00
39197;BME280;42889;51.112;13.772;2023-01-30T02:57:20;98882.50;;;-0.80;100.00
39197;BME280;42889;51.112;13.772;2023-01-30T02:59:56;98886.72;;;-0.77;100.00
39197;BME280;42889;51.112;13.772;2023-01-30T03:11:05;98853.06;;;-0.59;100.00
39197;BME280;42889;51.112;13.772;2023-01-30T03:16:14;98841.31;;;-0.55;100.00
39197;BME280;42889;51.112;13.772;2023-01-30T03:18:43;98841.25;;;-0.54;100.00
39197;BME280;42889;51.112;13.772;2023-01-30T03:21:14;98824.16;;;-0.48;100.00
39197;BME280;42889;51.112;13.772;2023-01-30T03:23:43;98813.47;;;-0.46;100.00
39197;BME280;42889;51.112;13.772;2023-01-30T03:26:25;98798.19;;;-0.41;100.00
39197;BME280;42889;51.112;13.772;2023-01-30T03:28:53;98785.50;;;-0.36;100.00
39197;BME280;42889;51.112;13.772;2023-01-30T03:31:20;98796.66;;;-0.31;100.00
39197;BME280;42889;51.112;13.772;2023-01-30T03:33:47;98771.91;;;-0.30;100.00
39197;BME280;42889;51.112;13.772;2023-01-30T03:36:14;98780.25;;;-0.23;100.00
39197;BME280;42889;51.112;13.772;2023-01-30T03:38:40;98781.41;;;-0.28;100.00
39197;BME280;42889;51.112;13.772;2023-01-30T03:41:07;98766.72;;;-0.32;100.00
39197;BME280;42889;51.112;13.772;2023-01-30T03:43:34;98761.50;;;-0.33;100.00
39197;BME280;42889;51.112;13.772;2023-01-30T03:46:03;98741.00;;;-0.30;100.00
39197;BME280;42889;51.112;13.772;2023-01-30T03:48:30;98744.59;;;-0.31;100.00
39197;BME280;42889;51.112;13.772;2023-01-30T03:50:56;98742.63;;;-0.27;100.00
39197;BME280;42889;51.112;13.772;2023-01-30T03:53:23;98757.38;;;-0.10;100.00
39197;BME280;42889;51.112;13.772;2023-01-30T03:55:49;98762.16;;;-0.03;100.00
39197;BME280;42889;51.112;13.772;2023-01-30T03:58:22;98770.63;;;0.03;100.00
39197;BME280;42889;51.112;13.772;2023-01-30T04:00:49;98774.78;;;0.07;100.00
39197;BME280;42889;51.112;13.772;2023-01-30T04:03:16;98776.16;;;0.12;100.00
39197;BME280;42889;51.112;13.772;2023-01-30T04:05:42;98763.25;;;0.20;100.00
39197;BME280;42889;51.112;13.772;2023-01-30T04:08:09;98765.91;;;0.20;100.00
39197;BME280;42889;51.112;13.772;2023-01-30T04:10:36;98754.47;;;0.20;100.00
39197;BME280;42889;51.112;13.772;2023-01-30T04:13:03;98737.44;;;0.24;100.00
39197;BME280;42889;51.112;13.772;2023-01-30T04:15:31;98746.13;;;0.26;100.00
39197;BME280;42889;51.112;13.772;2023-01-30T04:18:21;98743.88;;;0.33;100.00
39197;BME280;42889;51.112;13.772;2023-01-30T04:20:56;98743.88;;;0.33;100.00
39197;BME280;42889;51.112;13.772;2023-01-30T04:23:30;98724.31;;;0.35;100.00
39197;BME280;42889;51.112;13.772;2023-01-30T04:25:57;98720.53;;;0.39;100.00
39197;BME280;42889;51.112;13.772;2023-01-30T04:28:24;98710.88;;;0.38;100.00
39197;BME280;42889;51.112;13.772;2023-01-30T04:30:52;98723.91;;;0.41;100.00
39197;BME280;42889;51.112;13.772;2023-01-30T04:33:40;98713.44;;;0.40;100.00
39197;BME280;42889;51.112;13.772;2023-01-30T04:36:08;98722.09;;;0.42;100.00
39197;BME280;42889;51.112;13.772;2023-01-30T04:38:35;98704.66;;;0.39;100.00
39197;BME280;42889;51.112;13.772;2023-01-30T04:41:03;98699.88;;;0.44;100.00
39197;BME280;42889;51.112;13.772;2023-01-30T04:43:33;98699.22;;;0.53;100.00
39197;BME280;42889;51.112;13.772;2023-01-30T04:46:22;98685.13;;;0.53;100.00
39197;BME280;42889;51.112;13.772;2023-01-30T04:48:48;98676.88;;;0.58;100.00
39197;BME280;42889;51.112;13.772;2023-01-30T04:51:15;98658.34;;;0.58;100.00
39197;BME280;42889;51.112;13.772;2023-01-30T04:53:42;98666.25;;;0.70;100.00
39197;BME280;42889;51.112;13.772;2023-01-30T04:56:09;98647.00;;;0.68;100.00
39197;BME280;42889;51.112;13.772;2023-01-30T04:58:36;98650.38;;;0.70;100.00
39197;BME280;42889;51.112;13.772;2023-01-30T05:01:23;98658.00;;;0.75;100.00
39197;BME280;42889;51.112;13.772;2023-01-30T05:03:52;98648.75;;;0.81;100.00
39197;BME280;42889;51.112;13.772;2023-01-30T05:06:19;98651.41;;;0.81;100.00
39197;BME280;42889;51.112;13.772;2023-01-30T05:08:48;98626.53;;;0.83;100.00
39197;BME280;42889;51.112;13.772;2023-01-30T05:11:15;98615.94;;;0.83;100.00
39197;BME280;42889;51.112;13.772;2023-01-30T05:13:41;98605.50;;;0.93;100.00
39197;BME280;42889;51.112;13.772;2023-01-30T05:16:10;98606.97;;;0.97;100.00
39197;BME280;42889;51.112;13.772;2023-01-30T05:18:37;98592.88;;;0.96;100.00
39197;BME280;42889;51.112;13.772;2023-01-30T05:21:05;98583.47;;;0.92;100.00
39197;BME280;42889;51.112;13.772;2023-01-30T05:23:32;98584.72;;;0.99;100.00
39197;BME280;42889;51.112;13.772;2023-01-30T05:25:59;98584.72;;;0.99;100.00
39197;BME280;42889;51.112;13.772;2023-01-30T05:28:26;98581.09;;;1.00;100.00
39197;BME280;42889;51.112;13.772;2023-01-30T05:31:00;98576.41;;;1.04;100.00
39197;BME280;42889;51.112;13.772;2023-01-30T05:33:27;98571.22;;;1.02;100.00
39197;BME280;42889;51.112;13.772;2023-01-30T05:35:54;98566.91;;;1.01;100.00
39197;BME280;42889;51.112;13.772;2023-01-30T05:38:24;98572.06;;;1.03;100.00
39197;BME280;42889;51.112;13.772;2023-01-30T05:41:02;98573.03;;;1.02;100.00
39197;BME280;42889;51.112;13.772;2023-01-30T05:43:29;98561.47;;;1.03;100.00
39197;BME280;42889;51.112;13.772;2023-01-30T05:45:58;98573.66;;;1.05;100.00
39197;BME280;42889;51.112;13.772;2023-01-30T05:48:25;98549.56;;;1.09;100.00
39197;BME280;42889;51.112;13.772;2023-01-30T05:50:54;98555.13;;;1.05;100.00
39197;BME280;42889;51.112;13.772;2023-01-30T05:53:23;98551.25;;;1.10;100.00
39197;BME280;42889;51.112;13.772;2023-01-30T05:55:56;98542.38;;;1.11;100.00
39197;BME280;42889;51.112;13.772;2023-01-30T05:58:24;98544.41;;;1.07;100.00
39197;BME280;42889;51.112;13.772;2023-01-30T06:00:51;98520.22;;;1.12;100.00
39197;BME280;42889;51.112;13.772;2023-01-30T06:03:18;98543.09;;;1.13;100.00
39197;BME280;42889;51.112;13.772;2023-01-30T06:05:45;98544.44;;;1.18;100.00
39197;BME280;42889;51.112;13.772;2023-01-30T06:08:11;98546.00;;;1.21;100.00
39197;BME280;42889;51.112;13.772;2023-01-30T06:10:38;98546.41;;;1.27;100.00
39197;BME280;42889;51.112;13.772;2023-01-30T06:13:04;98549.91;;;1.28;100.00
39197;BME280;42889;51.112;13.772;2023-01-30T06:15:31;98536.66;;;1.28;100.00
39197;BME280;42889;51.112;13.772;2023-01-30T06:17:58;98533.16;;;1.27;100.00
39197;BME280;42889;51.112;13.772;2023-01-30T06:20:25;98538.34;;;1.29;100.00
39197;BME280;42889;51.112;13.772;2023-01-30T06:22:51;98533.03;;;1.29;100.00
39197;BME280;42889;51.112;13.772;2023-01-30T06:25:18;98537.25;;;1.31;100.00
39197;BME280;42889;51.112;13.772;2023-01-30T06:27:45;98530.28;;;1.30;100.00
39197;BME280;42889;51.112;13.772;2023-01-30T06:30:12;98530.28;;;1.30;100.00
39197;BME280;42889;51.112;13.772;2023-01-30T06:32:39;98518.69;;;1.31;100.00
39197;BME280;42889;51.112;13.772;2023-01-30T06:35:07;98533.75;;;1.31;100.00
39197;BME280;42889;51.112;13.772;2023-01-30T06:37:34;98528.84;;;1.26;100.00
39197;BME280;42889;51.112;13.772;2023-01-30T06:40:00;98525.22;;;1.27;100.00
39197;BME280;42889;51.112;13.772;2023-01-30T06:42:27;98519.56;;;1.32;100.00
39197;BME280;42889;51.112;13.772;2023-01-30T06:44:53;98521.25;;;1.33;100.00
39197;BME280;42889;51.112;13.772;2023-01-30T06:47:20;98519.44;;;1.34;100.00
39197;BME280;42889;51.112;13.772;2023-01-30T06:49:47;98535.81;;;1.27;100.00
39197;BME280;42889;51.112;13.772;2023-01-30T06:52:14;98527.25;;;1.24;100.00
39197;BME280;42889;51.112;13.772;2023-01-30T06:54:41;98534.81;;;1.17;100.00
39197;BME280;42889;51.112;13.772;2023-01-30T06:57:07;98536.63;;;1.17;100.00
39197;BME280;42889;51.112;13.772;2023-01-30T06:59:34;98530.06;;;1.10;100.00
39197;BME280;42889;51.112;13.772;2023-01-30T07:02:00;98524.28;;;1.04;100.00
39197;BME280;42889;51.112;13.772;2023-01-30T07:04:27;98530.66;;;1.02;100.00
39197;BME280;42889;51.112;13.772;2023-01-30T07:06:54;98528.34;;;0.97;100.00
39197;BME280;42889;51.112;13.772;2023-01-30T07:09:21;98522.44;;;0.94;100.00
39197;BME280;42889;51.112;13.772;2023-01-30T07:11:47;98519.50;;;0.86;100.00
39197;BME280;42889;51.112;13.772;2023-01-30T07:14:15;98529.47;;;0.82;100.00
39197;BME280;42889;51.112;13.772;2023-01-30T07:16:42;98525.97;;;0.82;100.00
39197;BME280;42889;51.112;13.772;2023-01-30T07:19:08;98509.16;;;0.83;100.00
39197;BME280;42889;51.112;13.772;2023-01-30T07:21:35;98510.50;;;0.88;100.00
39197;BME280;42889;51.112;13.772;2023-01-30T07:24:02;98508.09;;;0.96;100.00
39197;BME280;42889;51.112;13.772;2023-01-30T07:26:28;98501.63;;;1.00;100.00
39197;BME280;42889;51.112;13.772;2023-01-30T07:28:56;98514.63;;;1.03;100.00
39197;BME280;42889;51.112;13.772;2023-01-30T07:31:23;98515.41;;;1.17;100.00
39197;BME280;42889;51.112;13.772;2023-01-30T07:33:49;98507.34;;;1.18;100.00
39197;BME280;42889;51.112;13.772;2023-01-30T07:36:16;98497.25;;;1.23;100.00
39197;BME280;42889;51.112;13.772;2023-01-30T07:38:43;98501.03;;;1.32;100.00
39197;BME280;42889;51.112;13.772;2023-01-30T07:41:09;98503.91;;;1.40;100.00
39197;BME280;42889;51.112;13.772;2023-01-30T07:43:36;98493.81;;;1.45;100.00
39197;BME280;42889;51.112;13.772;2023-01-30T07:46:02;98498.97;;;1.47;100.00
39197;BME280;42889;51.112;13.772;2023-01-30T07:48:30;98499.59;;;1.50;100.00
39197;BME280;42889;51.112;13.772;2023-01-30T07:50:56;98493.81;;;1.56;100.00
39197;BME280;42889;51.112;13.772;2023-01-30T07:53:23;98498.78;;;1.61;100.00
39197;BME280;42889;51.112;13.772;2023-01-30T07:55:50;98486.84;;;1.55;100.00
39197;BME280;42889;51.112;13.772;2023-01-30T07:58:16;98484.41;;;1.52;100.00
39197;BME280;42889;51.112;13.772;2023-01-30T08:00:44;98503.25;;;1.61;100.00
39197;BME280;42889;51.112;13.772;2023-01-30T08:03:12;98492.63;;;1.61;100.00
39197;BME280;42889;51.112;13.772;2023-01-30T08:05:39;98498.16;;;1.57;100.00
39197;BME280;42889;51.112;13.772;2023-01-30T08:08:06;98491.88;;;1.58;100.00
39197;BME280;42889;51.112;13.772;2023-01-30T08:10:32;98504.22;;;1.60;100.00
39197;BME280;42889;51.112;13.772;2023-01-30T08:12:59;98486.59;;;1.58;100.00
39197;BME280;42889;51.112;13.772;2023-01-30T08:15:26;98477.22;;;1.66;100.00
39197;BME280;42889;51.112;13.772;2023-01-30T08:17:54;98497.19;;;1.70;100.00
39197;BME280;42889;51.112;13.772;2023-01-30T08:20:21;98477.09;;;1.67;100.00
39197;BME280;42889;51.112;13.772;2023-01-30T08:22:48;98477.19;;;1.54;100.00
39197;BME280;42889;51.112;13.772;2023-01-30T08:25:15;98502.09;;;1.41;100.00
39197;BME280;42889;51.112;13.772;2023-01-30T08:27:41;98480.41;;;1.36;100.00
39197;BME280;42889;51.112;13.772;2023-01-30T08:30:09;98498.13;;;1.35;100.00
39197;BME280;42889;51.112;13.772;2023-01-30T08:32:37;98491.25;;;1.33;100.00
39197;BME280;42889;51.112;13.772;2023-01-30T08:35:04;98487.97;;;1.29;100.00
39197;BME280;42889;51.112;13.772;2023-01-30T08:37:30;98491.97;;;1.35;100.00
39197;BME280;42889;51.112;13.772;2023-01-30T08:39:57;98479.44;;;1.37;100.00
39197;BME280;42889;51.112;13.772;2023-01-30T08:42:24;98479.56;;;1.35;100.00
39197;BME280;42889;51.112;13.772;2023-01-30T08:44:50;98485.69;;;1.36;100.00
39197;BME280;42889;51.112;13.772;2023-01-30T08:47:17;98472.22;;;1.39;100.00
39197;BME280;42889;51.112;13.772;2023-01-30T08:49:43;98469.81;;;1.47;100.00
39197;BME280;42889;51.112;13.772;2023-01-30T08:52:10;98472.34;;;1.48;100.00
39197;BME280;42889;51.112;13.772;2023-01-30T08:54:37;98460.44;;;1.54;100.00
39197;BME280;42889;51.112;13.772;2023-01-30T08:57:03;98467.09;;;1.60;100.00
39197;BME280;42889;51.112;13.772;2023-01-30T08:59:30;98459.00;;;1.61;100.00
39197;BME280;42889;51.112;13.772;2023-01-30T09:01:56;98465.50;;;1.68;100.00
39197;BME280;42889;51.112;13.772;2023-01-30T09:04:23;98464.06;;;1.75;100.00
39197;BME280;42889;51.112;13.772;2023-01-30T09:06:51;98469.97;;;1.79;100.00
39197;BME280;42889;51.112;13.772;2023-01-30T09:09:18;98465.28;;;1.82;100.00
39197;BME280;42889;51.112;13.772;2023-01-30T09:11:45;98458.88;;;1.85;100.00
39197;BME280;42889;51.112;13.772;2023-01-30T09:14:14;98460.34;;;1.89;100.00
39197;BME280;42889;51.112;13.772;2023-01-30T09:16:49;98469.75;;;1.93;100.00
39197;BME280;42889;51.112;13.772;2023-01-30T09:19:26;98471.16;;;1.97;100.00
39197;BME280;42889;51.112;13.772;2023-01-30T09:21:54;98466.25;;;2.04;100.00
39197;BME280;42889;51.112;13.772;2023-01-30T09:24:22;98469.38;;;2.09;100.00
39197;BME280;42889;51.112;13.772;2023-01-30T09:26:53;98463.81;;;2.12;100.00
39197;BME280;42889;51.112;13.772;2023-01-30T09:29:19;98467.19;;;2.14;100.00
39197;BME280;42889;51.112;13.772;2023-01-30T09:31:46;98474.28;;;2.14;100.00
39197;BME280;42889;51.112;13.772;2023-01-30T09:34:13;98474.19;;;2.15;100.00
39197;BME280;42889;51.112;13.772;2023-01-30T09:36:40;98477.69;;;2.16;100.00
39197;BME280;42889;51.112;13.772;2023-01-30T09:39:06;98477.56;;;2.17;100.00
39197;BME280;42889;51.112;13.772;2023-01-30T09:42:58;98471.28;;;2.18;100.00
39197;BME280;42889;51.112;13.772;2023-01-30T09:51:10;98439.19;;;2.21;100.00
39197;BME280;42889;51.112;13.772;2023-01-30T09:56:20;98447.47;;;2.39;100.00
39197;BME280;42889;51.112;13.772;2023-01-30T09:58:51;98444.81;;;2.39;100.00
39197;BME280;42889;51.112;13.772;2023-01-30T10:04:17;98427.03;;;2.51;100.00
39197;BME280;42889;51.112;13.772;2023-01-30T10:07:04;98428.34;;;2.56;100.00
39197;BME280;42889;51.112;13.772;2023-01-30T10:10:38;98435.91;;;2.72;100.00
39197;BME280;42889;51.112;13.772;2023-01-30T10:12:51;98410.19;;;2.73;100.00
39197;BME280;42889;51.112;13.772;2023-01-30T10:18:28;98400.78;;;2.89;100.00
39197;BME280;42889;51.112;13.772;2023-01-30T10:26:23;98400.94;;;3.09;100.00
39197;BME280;42889;51.112;13.772;2023-01-30T10:28:55;98398.31;;;3.39;100.00
39197;BME280;42889;51.112;13.772;2023-01-30T10:32:28;98398.38;;;3.49;100.00
39197;BME280;42889;51.112;13.772;2023-01-30T10:34:38;98416.06;;;3.60;100.00
39197;BME280;42889;51.112;13.772;2023-01-30T10:43:02;98434.59;;;3.20;100.00
39197;BME280;42889;51.112;13.772;2023-01-30T10:45:49;98423.91;;;3.10;100.00
39197;BME280;42889;51.112;13.772;2023-01-30T10:52:17;98427.53;;;3.09;100.00
39197;BME280;42889;51.112;13.772;2023-01-30T10:54:44;98420.06;;;3.03;100.00
39197;BME280;42889;51.112;13.772;2023-01-30T10:57:21;98433.75;;;2.98;100.00
39197;BME280;42889;51.112;13.772;2023-01-30T11:00:00;98430.88;;;2.90;100.00
39197;BME280;42889;51.112;13.772;2023-01-30T11:05:18;98441.63;;;2.56;100.00
39197;BME280;42889;51.112;13.772;2023-01-30T11:07:47;98428.16;;;2.48;100.00
39197;BME280;42889;51.112;13.772;2023-01-30T11:10:25;98452.56;;;2.42;100.00
39197;BME280;42889;51.112;13.772;2023-01-30T11:12:55;98422.47;;;2.42;100.00
39197;BME280;42889;51.112;13.772;2023-01-30T11:15:23;98431.41;;;2.41;100.00
39197;BME280;42889;51.112;13.772;2023-01-30T11:18:03;98441.06;;;2.42;100.00
39197;BME280;42889;51.112;13.772;2023-01-30T11:21:10;98411.38;;;2.48;100.00
39197;BME280;42889;51.112;13.772;2023-01-30T11:23:41;98431.28;;;2.53;100.00
39197;BME280;42889;51.112;13.772;2023-01-30T11:26:37;98420.06;;;2.50;100.00
39197;BME280;42889;51.112;13.772;2023-01-30T11:29:30;98414.75;;;2.50;100.00
39197;BME280;42889;51.112;13.772;2023-01-30T11:32:04;98427.78;;;2.53;100.00
39197;BME280;42889;51.112;13.772;2023-01-30T11:34:31;98422.38;;;2.43;100.00
39197;BME280;42889;51.112;13.772;2023-01-30T11:37:24;98415.63;;;2.39;100.00
39197;BME280;42889;51.112;13.772;2023-01-30T11:39:52;98410.53;;;2.36;100.00
39197;BME280;42889;51.112;13.772;2023-01-30T11:42:24;98413.09;;;2.37;100.00
39197;BME280;42889;51.112;13.772;2023-01-30T11:44:55;98410.31;;;2.39;100.00
39197;BME280;42889;51.112;13.772;2023-01-30T11:47:50;98394.13;;;2.42;100.00
39197;BME280;42889;51.112;13.772;2023-01-30T11:50:31;98402.47;;;2.37;100.00
39197;BME280;42889;51.112;13.772;2023-01-30T11:56:03;98403.88;;;2.42;100.00
39197;BME280;42889;51.112;13.772;2023-01-30T11:58:37;98392.69;;;2.38;100.00
39197;BME280;42889;51.112;13.772;2023-01-30T12:01:08;98405.22;;;2.36;100.00
39197;BME280;42889;51.112;13.772;2023-01-30T12:03:44;98392.69;;;2.38;100.00
39197;BME280;42889;51.112;13.772;2023-01-30T12:06:21;98378.06;;;2.44;100.00
39197;BME280;42889;51.112;13.772;2023-01-30T12:08:51;98372.25;;;2.50;100.00
39197;BME280;42889;51.112;13.772;2023-01-30T12:13:50;98361.38;;;2.53;100.00
39197;BME280;42889;51.112;13.772;2023-01-30T12:16:22;98364.16;;;2.51;100.00
39197;BME280;42889;51.112;13.772;2023-01-30T12:24:14;98352.84;;;2.70;100.00
39197;BME280;42889;51.112;13.772;2023-01-30T12:26:50;98326.25;;;2.91;100.00
39197;BME280;42889;51.112;13.772;2023-01-30T12:29:27;98337.81;;;2.80;100.00
39197;BME280;42889;51.112;13.772;2023-01-30T12:32:10;98336.94;;;2.80;100.00
39197;BME280;42889;51.112;13.772;2023-01-30T12:34:38;98333.44;;;2.79;100.00
39197;BME280;42889;51.112;13.772;2023-01-30T12:37:26;98333.44;;;2.79;100.00
39197;BME280;42889;51.112;13.772;2023-01-30T12:45:28;98337.78;;;3.01;100.00
39197;BME280;42889;51.112;13.772;2023-01-30T12:48:06;98329.81;;;3.01;100.00
39197;BME280;42889;51.112;13.772;2023-01-30T13:03:36;98336.56;;;3.05;100.00
39197;BME280;42889;51.112;13.772;2023-01-30T13:06:14;98321.72;;;3.03;100.00
39197;BME280;42889;51.112;13.772;2023-01-30T13:09:15;98319.78;;;3.05;100.00
39197;BME280;42889;51.112;13.772;2023-01-30T13:27:18;98311.31;;;3.21;100.00
39197;BME280;42889;51.112;13.772;2023-01-30T13:29:45;98313.13;;;3.20;100.00
39197;BME280;42889;51.112;13.772;2023-01-30T13:32:38;98314.56;;;3.24;100.00
39197;BME280;42889;51.112;13.772;2023-01-30T13:35:05;98311.47;;;3.29;100.00
39197;BME280;42889;51.112;13.772;2023-01-30T13:37:35;98332.75;;;3.29;100.00
39197;BME280;42889;51.112;13.772;2023-01-30T13:40:13;98323.41;;;3.34;100.00
39197;BME280;42889;51.112;13.772;2023-01-30T13:42:52;98319.50;;;3.38;100.00
39197;BME280;42889;51.112;13.772;2023-01-30T13:45:25;98307.34;;;3.46;100.00
39197;BME280;42889;51.112;13.772;2023-01-30T13:56:56;98311.03;;;3.54;100.00
39197;BME280;42889;51.112;13.772;2023-01-30T14:02:17;98321.47;;;3.77;100.00
39197;BME280;42889;51.112;13.772;2023-01-30T14:04:46;98326.25;;;3.83;100.00
39197;BME280;42889;51.112;13.772;2023-01-30T14:12:53;98328.56;;;3.66;100.00
39197;BME280;42889;51.112;13.772;2023-01-30T14:15:23;98315.13;;;3.58;100.00
39197;BME280;42889;51.112;13.772;2023-01-30T14:20:36;98330.34;;;3.56;100.00
39197;BME280;42889;51.112;13.772;2023-01-30T14:23:05;98322.13;;;3.59;100.00
39197;BME280;42889;51.112;13.772;2023-01-30T14:25:47;98332.47;;;3.62;100.00
39197;BME280;42889;51.112;13.772;2023-01-30T14:30:47;98340.56;;;3.51;100.00
39197;BME280;42889;51.112;13.772;2023-01-30T14:38:20;98345.09;;;3.30;100.00
39197;BME280;42889;51.112;13.772;2023-01-30T14:41:34;98333.88;;;3.26;100.00
39197;BME280;42889;51.112;13.772;2023-01-30T14:59:19;98315.16;;;3.07;100.00
39197;BME280;42889;51.112;13.772;2023-01-30T15:05:08;98339.06;;;3.07;100.00
39197;BME280;42889;51.112;13.772;2023-01-30T15:07:47;98336.31;;;3.08;100.00
39197;BME280;42889;51.112;13.772;2023-01-30T15:15:40;98334.28;;;3.01;100.00
39197;BME280;42889;51.112;13.772;2023-01-30T15:29:25;98356.34;;;2.92;100.00
39197;BME280;42889;51.112;13.772;2023-01-30T15:31:59;98362.88;;;2.87;100.00
39197;BME280;42889;51.112;13.772;2023-01-30T15:34:28;98365.56;;;2.87;100.00
39197;BME280;42889;51.112;13.772;2023-01-30T15:36:55;98349.75;;;2.86;100.00
39197;BME280;42889;51.112;13.772;2023-01-30T15:39:23;98373.13;;;2.92;100.00
39197;BME280;42889;51.112;13.772;2023-01-30T15:41:52;98394.41;;;2.92;100.00
39197;BME280;42889;51.112;13.772;2023-01-30T15:45:00;98412.47;;;2.77;100.00
39197;BME280;42889;51.112;13.772;2023-01-30T15:50:18;98422.53;;;2.62;100.00
39197;BME280;42889;51.112;13.772;2023-01-30T15:52:47;98438.28;;;2.54;100.00
39197;BME280;42889;51.112;13.772;2023-01-30T15:55:35;98438.06;;;2.35;100.00
39197;BME280;42889;51.112;13.772;2023-01-30T15:58:09;98426.50;;;2.25;100.00